createdAt,value
2022-08-02T00:01:01.397Z,3.90
2022-08-02T00:03:30.859Z,3.17
2022-08-02T00:05:57.832Z,4.07
2022-08-02T00:08:24.719Z,3.97
2022-08-02T00:10:51.650Z,4.40
2022-08-02T00:13:18.674Z,3.87
2022-08-02T00:15:50.115Z,4.37
2022-08-02T00:18:17.013Z,3.30
2022-08-02T00:20:43.952Z,3.60
2022-08-02T00:23:10.926Z,3.33
2022-08-02T00:25:54.511Z,3.87
2022-08-02T00:28:27.432Z,3.53
2022-08-02T00:30:58.052Z,3.37
2022-08-02T00:34:26.362Z,3.60
2022-08-02T00:36:14.752Z,3.90
2022-08-02T00:38:48.798Z,3.97
2022-08-02T00:41:19.550Z,3.37
2022-08-02T00:43:48.165Z,3.23
2022-08-02T00:46:17.493Z,2.70
2022-08-02T00:48:47.631Z,2.93
2022-08-02T00:51:19.279Z,3.70
2022-08-02T00:53:49.111Z,3.50
2022-08-02T00:56:18.428Z,3.93
2022-08-02T00:58:45.293Z,4.10
2022-08-02T01:01:15.037Z,4.07
2022-08-02T01:03:44.884Z,4.20
2022-08-02T01:06:14.259Z,3.50
2022-08-02T01:08:44.468Z,3.40
2022-08-02T01:11:11.447Z,3.60
2022-08-02T01:13:38.343Z,3.80
2022-08-02T01:16:16.636Z,3.60
2022-08-02T01:18:49.193Z,3.53
2022-08-02T01:21:55.309Z,3.80
2022-08-02T01:25:15.556Z,2.97
2022-08-02T01:28:27.839Z,3.67
2022-08-02T01:31:10.798Z,3.83
2022-08-02T01:33:46.008Z,4.10
2022-08-02T01:36:18.877Z,3.60
2022-08-02T01:38:53.373Z,3.47
2022-08-02T01:41:24.328Z,3.83
2022-08-02T01:43:57.158Z,3.70
2022-08-02T01:46:30.564Z,3.23
2022-08-02T01:49:04.528Z,4.23
2022-08-02T01:51:55.737Z,3.60
2022-08-02T01:54:32.242Z,3.90
2022-08-02T01:57:03.050Z,3.63
2022-08-02T01:59:32.125Z,3.60
2022-08-02T02:02:01.268Z,3.27
2022-08-02T02:04:33.055Z,3.40
2022-08-02T02:07:02.862Z,3.53
2022-08-02T02:09:36.383Z,3.40
2022-08-02T02:12:18.349Z,3.30
2022-08-02T02:14:50.020Z,3.73
2022-08-02T02:18:11.912Z,4.00
2022-08-02T02:20:09.719Z,3.07
2022-08-02T02:22:39.657Z,3.40
2022-08-02T02:25:12.047Z,3.20
2022-08-02T02:28:07.769Z,3.07
2022-08-02T02:30:39.097Z,3.83
2022-08-02T02:33:08.580Z,2.93
2022-08-02T02:35:39.793Z,3.73
2022-08-02T02:38:13.346Z,3.13
2022-08-02T02:40:43.844Z,4.00
2022-08-02T02:43:14.729Z,3.90
2022-08-02T02:45:42.298Z,3.20
2022-08-02T02:48:12.890Z,2.87
2022-08-02T02:50:44.453Z,3.53
2022-08-02T02:53:16.214Z,3.20
2022-08-02T02:56:01.798Z,3.43
2022-08-02T02:58:31.322Z,3.67
2022-08-02T03:01:17.097Z,3.77
2022-08-02T03:03:47.443Z,3.13
2022-08-02T03:06:18.860Z,4.43
2022-08-02T03:08:48.385Z,4.10
2022-08-02T03:11:15.912Z,4.10
2022-08-02T03:13:42.975Z,4.27
2022-08-02T03:16:11.744Z,3.43
2022-08-02T03:18:41.383Z,3.53
2022-08-02T03:21:15.147Z,3.60
2022-08-02T03:23:43.643Z,3.60
2022-08-02T03:26:18.170Z,3.90
2022-08-02T03:28:45.085Z,4.00
2022-08-02T03:31:14.039Z,4.00
2022-08-02T03:33:45.498Z,4.27
2022-08-02T03:36:19.744Z,4.00
2022-08-02T03:38:47.388Z,4.30
2022-08-02T03:41:20.390Z,4.20
2022-08-02T03:43:49.284Z,4.00
2022-08-02T03:46:20.704Z,4.63
2022-08-02T03:48:49.798Z,4.17
2022-08-02T03:51:17.226Z,4.47
2022-08-02T03:53:44.897Z,4.50
2022-08-02T03:56:12.300Z,4.00
2022-08-02T03:58:39.341Z,4.47
2022-08-02T04:01:06.463Z,4.23
2022-08-02T04:03:33.548Z,4.47
2022-08-02T04:06:04.352Z,3.77
2022-08-02T04:08:38.294Z,4.60
2022-08-02T04:11:24.984Z,3.50
2022-08-02T04:13:52.592Z,3.90
2022-08-02T04:16:42.987Z,3.53
2022-08-02T04:19:17.460Z,4.00
2022-08-02T04:21:51.573Z,3.50
2022-08-02T04:24:28.503Z,4.07
2022-08-02T04:27:01.126Z,3.63
2022-08-02T04:29:35.261Z,3.83
2022-08-02T04:32:04.058Z,4.10
2022-08-02T04:34:31.229Z,5.10
2022-08-02T04:36:59.786Z,4.83
2022-08-02T04:39:31.807Z,5.13
2022-08-02T04:41:59.071Z,4.77
2022-08-02T04:44:28.474Z,4.50
2022-08-02T04:46:55.950Z,5.33
2022-08-02T04:49:25.390Z,5.17
2022-08-02T04:51:55.002Z,4.33
2022-08-02T04:54:21.884Z,4.30
2022-08-02T04:56:48.726Z,4.20
2022-08-02T04:59:18.623Z,3.70
2022-08-02T05:01:47.640Z,4.13
2022-08-02T05:04:16.681Z,4.63
2022-08-02T05:06:43.614Z,3.80
2022-08-02T05:09:10.537Z,4.03
2022-08-02T05:11:37.556Z,4.40
2022-08-02T05:14:05.759Z,4.30
2022-08-02T05:16:35.244Z,4.63
2022-08-02T05:19:05.158Z,4.10
2022-08-02T05:21:34.484Z,4.90
2022-08-02T05:24:01.342Z,4.10
2022-08-02T05:26:28.213Z,3.90
2022-08-02T05:28:55.060Z,4.87
2022-08-02T05:31:22.434Z,5.03
2022-08-02T05:33:49.289Z,4.53
2022-08-02T05:36:21.676Z,4.13
2022-08-02T05:38:50.911Z,4.23
2022-08-02T05:41:19.443Z,3.90
2022-08-02T05:43:49.849Z,4.27
2022-08-02T05:46:16.769Z,3.67
2022-08-02T05:48:45.552Z,4.30
2022-08-02T05:51:36.205Z,3.77
2022-08-02T05:54:45.776Z,4.30
2022-08-02T05:57:25.752Z,3.87
2022-08-02T06:00:09.991Z,4.07
2022-08-02T06:02:42.518Z,3.87
2022-08-02T06:05:15.340Z,3.87
2022-08-02T06:07:46.997Z,3.73
2022-08-02T06:10:20.582Z,3.50
2022-08-02T06:12:56.779Z,3.67
2022-08-02T06:15:25.743Z,3.97
2022-08-02T06:17:55.640Z,4.17
2022-08-02T06:20:24.219Z,3.17
2022-08-02T06:22:52.330Z,4.00
2022-08-02T06:25:50.939Z,4.17
2022-08-02T06:28:15.798Z,4.53
2022-08-02T06:30:47.615Z,4.27
2022-08-02T06:33:15.184Z,4.23
2022-08-02T06:35:57.958Z,4.00
2022-08-02T06:38:34.013Z,3.87
2022-08-02T06:41:12.188Z,4.03
2022-08-02T06:44:19.920Z,2.97
2022-08-02T06:47:11.989Z,3.17
2022-08-02T06:49:51.514Z,3.33
2022-08-02T06:52:31.278Z,3.63
2022-08-02T06:55:04.000Z,3.07
2022-08-02T06:57:32.029Z,2.90
2022-08-02T07:00:08.317Z,2.73
2022-08-02T07:02:36.721Z,3.67
2022-08-02T07:05:04.861Z,2.73
2022-08-02T07:07:32.147Z,2.60
2022-08-02T07:10:02.710Z,3.33
2022-08-02T07:12:34.253Z,2.80
2022-08-02T07:15:09.984Z,2.50
2022-08-02T07:17:39.918Z,3.70
2022-08-02T07:20:13.537Z,3.00
2022-08-02T07:22:42.994Z,2.83
2022-08-02T07:25:10.420Z,2.60
2022-08-02T07:27:39.557Z,2.60
2022-08-02T07:30:12.462Z,2.60
2022-08-02T07:32:39.407Z,2.90
2022-08-02T07:35:07.922Z,3.33
2022-08-02T07:37:54.566Z,2.87
2022-08-02T07:40:24.231Z,2.33
2022-08-02T07:42:57.930Z,2.60
2022-08-02T07:45:27.371Z,2.37
2022-08-02T07:47:54.730Z,3.33
2022-08-02T07:50:24.389Z,2.40
2022-08-02T07:52:57.065Z,2.97
2022-08-02T07:55:39.147Z,2.97
2022-08-02T07:58:12.583Z,3.63
2022-08-02T08:00:42.087Z,3.47
2022-08-02T08:03:09.028Z,3.30
2022-08-02T08:05:40.890Z,3.13
2022-08-02T08:08:08.822Z,2.83
2022-08-02T08:10:37.075Z,2.70
2022-08-02T08:13:03.952Z,2.80
2022-08-02T08:15:33.326Z,3.47
2022-08-02T08:18:02.305Z,2.93
2022-08-02T08:20:29.246Z,3.30
2022-08-02T08:22:59.846Z,2.30
2022-08-02T08:25:29.669Z,2.40
2022-08-02T08:27:56.910Z,3.13
2022-08-02T08:30:27.247Z,2.57
2022-08-02T08:32:54.150Z,2.67
2022-08-02T08:35:25.681Z,2.90
2022-08-02T08:37:53.822Z,2.40
2022-08-02T08:40:24.358Z,2.70
2022-08-02T08:42:51.654Z,1.97
2022-08-02T08:45:18.690Z,2.60
2022-08-02T08:47:55.115Z,2.57
2022-08-02T08:50:27.063Z,2.70
2022-08-02T08:53:09.063Z,2.47
2022-08-02T08:55:39.357Z,2.37
2022-08-02T08:58:08.867Z,3.20
2022-08-02T09:00:38.325Z,1.87
2022-08-02T09:03:07.030Z,2.50
2022-08-02T09:05:41.806Z,2.93
2022-08-02T09:08:16.471Z,3.10
2022-08-02T09:10:48.025Z,2.53
2022-08-02T09:13:37.925Z,2.90
2022-08-02T09:16:12.170Z,2.50
2022-08-02T09:18:46.385Z,2.37
2022-08-02T09:21:18.029Z,2.97
2022-08-02T09:23:50.751Z,2.33
2022-08-02T09:26:23.031Z,2.90
2022-08-02T09:29:02.299Z,2.33
2022-08-02T09:31:29.277Z,2.33
2022-08-02T09:33:59.119Z,2.30
2022-08-02T09:36:37.935Z,2.43
2022-08-02T09:39:10.715Z,2.83
2022-08-02T09:41:42.397Z,2.70
2022-08-02T09:44:16.465Z,2.53
2022-08-02T09:46:51.442Z,2.50
2022-08-02T09:49:20.038Z,2.37
2022-08-02T09:51:47.270Z,2.73
2022-08-02T09:54:24.004Z,2.50
2022-08-02T09:56:54.544Z,3.20
2022-08-02T09:59:25.819Z,2.90
2022-08-02T10:02:01.283Z,2.70
2022-08-02T10:04:31.713Z,2.93
2022-08-02T10:07:04.586Z,2.90
2022-08-02T10:09:32.578Z,3.20
2022-08-02T10:12:01.128Z,2.70
2022-08-02T10:14:28.618Z,2.60
2022-08-02T10:16:57.917Z,2.90
2022-08-02T10:20:02.036Z,2.00
2022-08-02T10:22:23.036Z,2.43
2022-08-02T10:24:50.627Z,3.63
2022-08-02T10:27:22.148Z,2.73
2022-08-02T10:29:55.938Z,2.87
2022-08-02T10:32:40.024Z,3.13
2022-08-02T10:35:20.073Z,3.50
2022-08-02T10:37:57.301Z,2.40
2022-08-02T10:40:27.372Z,3.27
2022-08-02T10:42:59.571Z,2.37
2022-08-02T10:45:28.570Z,2.13
2022-08-02T10:48:01.677Z,2.00
2022-08-02T10:50:46.860Z,1.87
2022-08-02T10:54:02.095Z,1.90
2022-08-02T10:56:47.827Z,2.47
2022-08-02T10:59:31.507Z,2.17
2022-08-02T11:02:05.018Z,2.07
2022-08-02T11:04:36.753Z,5.20
2022-08-02T11:07:17.036Z,2.00
2022-08-02T11:09:51.959Z,2.00
2022-08-02T11:12:23.488Z,1.90
2022-08-02T11:15:08.102Z,1.97
2022-08-02T11:17:54.676Z,1.67
2022-08-02T11:20:23.677Z,3.10
2022-08-02T11:22:54.333Z,1.80
2022-08-02T11:25:24.219Z,1.83
2022-08-02T11:27:58.711Z,1.60
2022-08-02T11:30:27.530Z,2.67
2022-08-02T11:32:59.884Z,2.20
2022-08-02T11:35:38.963Z,1.90
2022-08-02T11:38:23.764Z,2.60
2022-08-02T11:40:57.186Z,1.70
2022-08-02T11:43:27.372Z,2.03
2022-08-02T11:45:56.197Z,2.23
2022-08-02T11:48:44.046Z,2.60
2022-08-02T11:51:16.953Z,2.40
2022-08-02T11:53:49.637Z,1.97
2022-08-02T11:56:26.747Z,2.27
2022-08-02T11:59:10.120Z,2.60
2022-08-02T12:01:46.428Z,1.97
2022-08-02T12:04:19.418Z,2.23
2022-08-02T12:07:00.896Z,2.40
2022-08-02T12:09:29.715Z,1.87
2022-08-02T12:11:57.959Z,1.97
2022-08-02T12:14:28.067Z,1.93
2022-08-02T12:17:14.555Z,3.07
2022-08-02T12:19:44.900Z,2.57
2022-08-02T12:22:24.440Z,2.07
2022-08-02T12:24:59.901Z,1.90
2022-08-02T12:27:40.495Z,2.47
2022-08-02T12:30:13.167Z,1.60
2022-08-02T12:32:43.302Z,1.70
2022-08-02T12:35:25.980Z,1.60
2022-08-02T12:37:54.114Z,2.10
2022-08-02T12:40:34.163Z,1.60
2022-08-02T12:43:08.149Z,2.00
2022-08-02T12:45:56.570Z,1.90
2022-08-02T12:48:37.703Z,1.80
2022-08-02T12:51:56.631Z,1.70
2022-08-02T12:54:30.947Z,1.90
2022-08-02T12:57:13.408Z,1.90
2022-08-02T12:59:42.561Z,1.73
2022-08-02T13:02:16.993Z,2.10
2022-08-02T13:04:50.164Z,1.83
2022-08-02T13:07:20.202Z,1.97
2022-08-02T13:09:50.173Z,2.10
2022-08-02T13:12:19.301Z,2.50
2022-08-02T13:14:46.325Z,1.63
2022-08-02T13:17:13.185Z,1.80
2022-08-02T13:19:42.827Z,2.00
2022-08-02T13:22:10.767Z,2.00
2022-08-02T13:24:56.559Z,1.80
2022-08-02T13:27:26.213Z,1.60
2022-08-02T13:29:55.123Z,1.60
2022-08-02T13:32:23.769Z,1.63
2022-08-02T13:34:50.942Z,1.50
2022-08-02T13:37:20.814Z,1.87
2022-08-02T13:40:06.031Z,1.90
2022-08-02T13:42:35.127Z,1.60
2022-08-02T13:45:12.686Z,1.83
2022-08-02T13:48:03.830Z,1.97
2022-08-02T13:50:37.368Z,1.50
2022-08-02T13:53:06.624Z,1.57
2022-08-02T13:55:36.197Z,2.00
2022-08-02T13:58:05.666Z,1.90
2022-08-02T14:00:36.454Z,1.47
2022-08-02T14:03:08.102Z,1.93
2022-08-02T14:05:48.033Z,2.93
2022-08-02T14:08:18.219Z,1.40
2022-08-02T14:10:49.640Z,1.40
2022-08-02T14:13:17.628Z,1.73
2022-08-02T14:15:47.623Z,1.60
2022-08-02T14:18:17.137Z,1.90
2022-08-02T14:20:47.229Z,1.57
2022-08-02T14:23:14.445Z,1.63
2022-08-02T14:25:41.790Z,1.50
2022-08-02T14:28:11.382Z,1.50
2022-08-02T14:30:38.669Z,1.67
2022-08-02T14:33:08.032Z,1.40
2022-08-02T14:35:34.931Z,1.57
2022-08-02T14:38:04.200Z,1.90
2022-08-02T14:40:32.058Z,1.73
2022-08-02T14:43:00.923Z,1.40
2022-08-02T14:45:41.009Z,1.20
2022-08-02T14:48:11.076Z,2.00
2022-08-02T14:50:40.561Z,1.40
2022-08-02T14:53:14.614Z,1.60
2022-08-02T14:55:42.990Z,1.50
2022-08-02T14:58:11.776Z,1.30
2022-08-02T15:00:41.243Z,1.30
2022-08-02T15:03:09.935Z,1.00
2022-08-02T15:05:38.201Z,1.37
2022-08-02T15:08:05.655Z,1.73
2022-08-02T15:10:32.574Z,1.60
2022-08-02T15:12:59.774Z,1.50
2022-08-02T15:15:26.710Z,1.87
2022-08-02T15:17:55.933Z,1.73
2022-08-02T15:20:25.439Z,1.60
2022-08-02T15:22:53.151Z,1.43
2022-08-02T15:25:23.078Z,1.70
2022-08-02T15:27:49.976Z,1.70
2022-08-02T15:30:16.905Z,1.77
2022-08-02T15:32:53.399Z,1.83
2022-08-02T15:35:23.562Z,2.10
2022-08-02T15:37:50.675Z,2.10
2022-08-02T15:40:17.915Z,2.10
2022-08-02T15:42:44.922Z,1.63
2022-08-02T15:45:15.892Z,2.40
2022-08-02T15:47:48.275Z,1.80
2022-08-02T15:50:18.613Z,2.10
2022-08-02T15:52:48.138Z,2.03
2022-08-02T15:55:19.669Z,2.30
2022-08-02T15:57:49.690Z,1.77
2022-08-02T16:00:19.538Z,2.00
2022-08-02T16:02:49.428Z,2.00
2022-08-02T16:05:18.108Z,2.00
2022-08-02T16:07:46.256Z,2.47
2022-08-02T16:10:14.650Z,2.00
2022-08-02T16:12:41.567Z,2.53
2022-08-02T16:15:12.587Z,2.00
2022-08-02T16:17:49.427Z,2.03
2022-08-02T16:20:23.096Z,1.80
2022-08-02T16:22:50.081Z,2.33
2022-08-02T16:25:19.222Z,2.20
2022-08-02T16:28:07.364Z,2.50
2022-08-02T16:30:35.728Z,1.80
2022-08-02T16:33:02.980Z,2.07
2022-08-02T16:35:29.951Z,2.00
2022-08-02T16:37:59.053Z,2.23
2022-08-02T16:40:26.048Z,2.23
2022-08-02T16:42:52.912Z,2.33
2022-08-02T16:45:21.368Z,1.83
2022-08-02T16:47:57.419Z,2.10
2022-08-02T16:53:36.249Z,2.17
2022-08-02T16:56:02.265Z,2.37
2022-08-02T16:58:29.133Z,2.63
2022-08-02T17:00:56.018Z,2.30
2022-08-02T17:03:24.802Z,2.50
2022-08-02T17:06:16.060Z,2.20
2022-08-02T17:08:54.427Z,2.83
2022-08-02T17:11:23.878Z,2.60
2022-08-02T17:13:54.233Z,2.37
2022-08-02T17:16:26.333Z,3.23
2022-08-02T17:18:57.488Z,2.70
2022-08-02T17:21:28.955Z,2.77
2022-08-02T17:24:04.871Z,3.10
2022-08-02T17:26:51.361Z,2.30
2022-08-02T17:29:21.684Z,2.57
2022-08-02T17:32:05.773Z,2.47
2022-08-02T17:34:38.482Z,2.70
2022-08-02T17:37:09.639Z,3.20
2022-08-02T17:39:43.219Z,3.20
2022-08-02T17:42:19.847Z,3.00
2022-08-02T17:44:49.661Z,2.70
2022-08-02T17:47:17.814Z,3.47
2022-08-02T17:49:47.947Z,4.10
2022-08-02T17:52:50.672Z,3.23
2022-08-02T17:55:10.554Z,4.07
2022-08-02T17:57:55.645Z,3.07
2022-08-02T18:00:27.931Z,3.00
2022-08-02T18:02:59.446Z,2.67
2022-08-02T18:05:39.428Z,2.77
2022-08-02T18:08:10.768Z,2.80
2022-08-02T18:10:41.023Z,2.67
2022-08-02T18:13:10.464Z,3.27
2022-08-02T18:15:38.982Z,3.13
2022-08-02T18:18:09.585Z,4.53
2022-08-02T18:20:36.928Z,3.10
2022-08-02T18:23:04.679Z,3.30
2022-08-02T18:25:45.815Z,3.07
2022-08-02T18:28:15.153Z,3.60
2022-08-02T18:30:44.923Z,3.10
2022-08-02T18:33:57.332Z,3.27
2022-08-02T18:36:03.933Z,3.77
2022-08-02T18:38:33.286Z,2.73
2022-08-02T18:41:12.539Z,3.07
2022-08-02T18:43:46.048Z,3.40
2022-08-02T18:46:17.013Z,4.07
2022-08-02T18:48:48.058Z,3.93
2022-08-02T18:51:20.167Z,4.40
2022-08-02T18:53:50.951Z,3.70
2022-08-02T18:56:24.760Z,3.97
2022-08-02T18:58:53.172Z,3.70
2022-08-02T19:01:31.835Z,3.93
2022-08-02T19:04:02.575Z,4.00
2022-08-02T19:06:30.082Z,3.90
2022-08-02T19:09:06.085Z,3.60
2022-08-02T19:11:38.697Z,4.80
2022-08-02T19:14:12.833Z,4.40
2022-08-02T19:16:46.225Z,3.80
2022-08-02T19:19:20.312Z,4.07
2022-08-02T19:22:18.091Z,4.13
2022-08-02T19:24:37.613Z,4.20
2022-08-02T19:27:13.253Z,4.10
2022-08-02T19:29:43.043Z,3.77
2022-08-02T19:32:42.939Z,3.90
2022-08-02T19:38:10.248Z,3.40
2022-08-02T19:40:42.967Z,3.80
2022-08-02T19:44:23.517Z,3.20
2022-08-02T19:46:05.245Z,3.70
2022-08-02T19:48:32.233Z,3.40
2022-08-02T19:51:01.411Z,4.67
2022-08-02T19:53:47.135Z,4.43
2022-08-02T19:56:24.773Z,3.63
2022-08-02T19:58:57.916Z,4.00
2022-08-02T20:01:38.282Z,4.63
2022-08-02T20:04:22.986Z,4.20
2022-08-02T20:06:51.035Z,4.83
2022-08-02T20:09:21.489Z,4.30
2022-08-02T20:12:10.515Z,4.27
2022-08-02T20:14:40.313Z,4.00
2022-08-02T20:17:21.130Z,3.23
2022-08-02T20:19:48.441Z,3.97
2022-08-02T20:22:18.426Z,3.50
2022-08-02T20:24:47.419Z,3.73
2022-08-02T20:27:16.992Z,3.73
2022-08-02T20:32:35.718Z,3.17
2022-08-02T20:35:04.529Z,3.20
2022-08-02T20:38:00.720Z,3.60
2022-08-02T20:40:21.061Z,3.60
2022-08-02T20:42:50.429Z,3.87
2022-08-02T20:45:21.646Z,3.80
2022-08-02T20:47:52.505Z,3.33
2022-08-02T20:50:41.139Z,3.30
2022-08-02T20:53:23.720Z,4.53
2022-08-02T20:55:54.603Z,4.10
2022-08-02T20:58:27.308Z,3.60
2022-08-02T21:00:59.760Z,4.10
2022-08-02T21:03:39.531Z,4.27
2022-08-02T21:06:15.114Z,3.13
2022-08-02T21:08:48.609Z,3.60
2022-08-02T21:11:16.514Z,3.60
2022-08-02T21:13:46.773Z,4.80
2022-08-02T21:16:32.465Z,3.70
2022-08-02T21:19:02.910Z,3.53
2022-08-02T21:21:35.084Z,3.77
2022-08-02T21:24:02.971Z,3.07
2022-08-02T21:26:31.184Z,3.80
2022-08-02T21:29:03.499Z,3.90
2022-08-02T21:31:36.871Z,3.67
2022-08-02T21:34:21.907Z,3.50
2022-08-02T21:36:56.361Z,3.60
2022-08-02T21:39:28.138Z,3.60
2022-08-02T21:41:55.017Z,3.70
2022-08-02T21:44:25.146Z,4.03
2022-08-02T21:46:57.515Z,4.40
2022-08-02T21:50:09.030Z,4.00
2022-08-02T21:52:25.983Z,3.97
2022-08-02T21:54:55.713Z,4.10
2022-08-02T21:57:25.839Z,3.93
2022-08-02T22:00:10.832Z,4.33
2022-08-02T22:02:37.746Z,4.00
2022-08-02T22:05:05.194Z,4.30
2022-08-02T22:07:41.336Z,3.53
2022-08-02T22:10:12.761Z,4.37
2022-08-02T22:12:39.602Z,4.20
2022-08-02T22:15:10.470Z,4.13
2022-08-02T22:17:51.350Z,3.63
2022-08-02T22:20:25.740Z,4.00
2022-08-02T22:22:58.547Z,4.30
2022-08-02T22:25:36.262Z,4.43
2022-08-02T22:28:37.344Z,4.17
2022-08-02T22:31:04.654Z,3.63
2022-08-02T22:34:00.709Z,3.97
2022-08-02T22:36:36.521Z,3.90
2022-08-02T22:39:19.378Z,4.10
2022-08-02T22:42:06.461Z,3.50
2022-08-02T22:44:35.002Z,3.60
2022-08-02T22:47:07.511Z,4.20
2022-08-02T22:49:51.699Z,3.83
2022-08-02T22:52:25.269Z,3.60
2022-08-02T22:54:52.970Z,3.50
2022-08-02T22:57:29.920Z,4.20
2022-08-02T22:58:50.891Z,2.70
2022-08-02T22:58:52.376Z,4.17
2022-08-02T22:58:55.569Z,3.23
2022-08-02T22:59:59.150Z,4.30
2022-08-02T23:02:29.969Z,4.70
2022-08-02T23:04:57.275Z,3.90
2022-08-02T23:07:26.876Z,4.40
2022-08-02T23:09:56.396Z,4.60
2022-08-02T23:12:23.498Z,4.10
2022-08-02T23:14:51.765Z,4.03
2022-08-02T23:17:38.479Z,4.30
2022-08-02T23:20:13.228Z,3.80
2022-08-02T23:22:40.177Z,3.93
2022-08-02T23:25:08.536Z,4.33
2022-08-02T23:27:38.264Z,4.53
2022-08-02T23:30:10.375Z,4.53
2022-08-02T23:32:40.833Z,4.40
2022-08-02T23:35:09.176Z,5.20
2022-08-02T23:37:59.692Z,4.70
2022-08-02T23:40:38.992Z,4.87
2022-08-02T23:43:14.961Z,4.80
2022-08-02T23:45:46.150Z,4.87
2022-08-02T23:48:13.886Z,5.20
2022-08-02T23:50:40.852Z,4.80
2022-08-02T23:53:07.706Z,4.87
2022-08-02T23:55:34.592Z,4.53
2022-08-02T23:58:01.428Z,5.40
